Time;durP1;ratioP1;P1;durP2;ratioP2;P2;SDS_P1;SDS_P2;PMS_P1;PMS_P2;Temp;Humidity;BMP_temperature;BMP_pressure;BME280_temperature;BME280_humidity;BME280_pressure;Samples;Min_cycle;Max_cycle;Signal;HPM_P1;HPM_P2
2022/04/08 00:01:28;;;;;;;5.60;0.20;;;;;;;2.23;55.25;98940.50;5048699;28;20049;-72
2022/04/08 00:03:54;;;;;;;3.38;0.10;;;;;;;2.61;53.98;98951.13;5047689;28;20036;-72
2022/04/08 00:06:21;;;;;;;1.73;0.20;;;;;;;2.48;55.02;98957.66;5048967;28;20052;-72
2022/04/08 00:08:48;;;;;;;6.88;0.30;;;;;;;2.09;55.83;98963.38;5044197;28;20024;-73
2022/04/08 00:11:14;;;;;;;4.00;0.20;;;;;;;2.62;54.74;98965.69;5047160;28;20049;-73
2022/04/08 00:13:40;;;;;;;7.75;0.45;;;;;;;2.70;54.32;98976.59;5036646;28;20043;-72
2022/04/08 00:16:07;;;;;;;2.90;0.17;;;;;;;3.12;53.62;98978.41;5044299;28;20156;-74
2022/04/08 00:18:33;;;;;;;3.30;0.13;;;;;;;2.64;54.81;98986.28;5062220;28;20496;-73
2022/04/08 00:20:59;;;;;;;9.20;0.25;;;;;;;2.93;54.06;98991.19;5045577;28;20041;-74
2022/04/08 00:23:25;;;;;;;4.55;0.60;;;;;;;2.60;55.01;98995.91;5048812;28;20037;-73
2022/04/08 00:25:51;;;;;;;5.55;0.40;;;;;;;2.82;54.38;98995.06;5046061;28;20041;-72
2022/04/08 00:28:16;;;;;;;3.85;0.20;;;;;;;2.69;54.93;98998.13;5046653;28;20733;-73
2022/04/08 00:30:42;;;;;;;2.63;0.20;;;;;;;2.74;54.82;99005.69;5042889;28;20104;-72
2022/04/08 00:33:07;;;;;;;18.92;0.68;;;;;;;2.76;54.39;99009.91;5048244;28;20120;-72
2022/04/08 00:35:33;;;;;;;4.68;0.10;;;;;;;3.04;53.69;99002.84;5044825;28;20561;-73
2022/04/08 00:37:58;;;;;;;7.03;0.35;;;;;;;2.73;54.58;99012.59;5046998;28;20033;-73
2022/04/08 00:40:24;;;;;;;3.92;0.10;;;;;;;2.75;54.24;99018.50;5045737;28;20035;-71
2022/04/08 00:42:50;;;;;;;1.00;0.30;;;;;;;2.49;54.77;99019.50;5044011;28;20043;-73
2022/04/08 00:45:15;;;;;;;3.72;0.15;;;;;;;2.28;55.44;99041.72;5045020;28;20604;-73
2022/04/08 00:47:41;;;;;;;0.85;0.15;;;;;;;2.00;56.38;99051.28;5043762;28;20047;-71
2022/04/08 00:50:11;;;;;;;4.90;0.25;;;;;;;2.13;56.62;99080.91;5043832;28;20033;-72
2022/04/08 00:52:39;;;;;;;7.15;0.20;;;;;;;1.08;58.84;99086.75;5045612;28;20098;-71
2022/04/08 00:55:06;;;;;;;2.17;0.05;;;;;;;1.41;58.02;99089.22;5046719;28;20032;-72
2022/04/08 00:57:33;;;;;;;6.47;1.00;;;;;;;1.35;57.62;99094.53;5044847;28;20037;-72
2022/04/08 01:00:08;;;;;;;2.22;0.20;;;;;;;1.30;57.83;99097.25;5046221;28;20520;-72
2022/04/08 01:02:35;;;;;;;4.82;0.90;;;;;;;0.95;58.03;99098.28;5048757;28;20048;-72
2022/04/08 01:05:01;;;;;;;3.13;0.10;;;;;;;1.16;57.47;99099.38;5044385;28;20045;-73
2022/04/08 01:07:27;;;;;;;4.63;0.43;;;;;;;1.29;57.13;99105.00;5044923;28;20436;-72
2022/04/08 01:09:52;;;;;;;1.63;0.20;;;;;;;1.03;57.92;99116.91;5046552;28;20042;-71
2022/04/08 01:12:19;;;;;;;2.50;0.10;;;;;;;1.69;56.05;99122.69;5045071;28;20074;-72
2022/04/08 01:14:44;;;;;;;10.52;0.40;;;;;;;1.79;56.13;99122.41;5044540;28;20040;-72
2022/04/08 01:17:10;;;;;;;2.10;0.30;;;;;;;1.08;58.21;99133.06;5037506;28;20033;-72
2022/04/08 01:19:35;;;;;;;6.22;0.40;;;;;;;1.76;56.51;99132.81;5045186;28;20024;-72
2022/04/08 01:22:02;;;;;;;4.60;0.17;;;;;;;1.42;57.31;99150.13;5043730;28;20068;-71
2022/04/08 01:24:29;;;;;;;5.95;0.30;;;;;;;1.23;57.96;99154.09;5046539;28;20472;-72
2022/04/08 01:26:56;;;;;;;6.78;0.40;;;;;;;1.21;57.87;99148.97;5051702;28;20029;-72
2022/04/08 01:29:22;;;;;;;9.85;0.70;;;;;;;1.28;57.49;99158.22;5047213;28;20066;-71
2022/04/08 01:31:47;;;;;;;5.18;0.43;;;;;;;1.48;56.73;99152.53;5044817;28;20037;-72
2022/04/08 01:34:13;;;;;;;7.55;0.75;;;;;;;1.02;56.45;99158.97;5046697;28;20145;-72
2022/04/08 01:36:39;;;;;;;5.53;1.23;;;;;;;1.55;54.76;99152.31;5043775;28;20399;-72
2022/04/08 01:39:05;;;;;;;3.08;0.20;;;;;;;1.59;54.74;99139.31;5045370;28;20067;-71
2022/04/08 01:41:31;;;;;;;8.65;0.70;;;;;;;1.83;54.10;99148.00;5043903;28;20040;-71
2022/04/08 01:43:57;;;;;;;6.28;1.38;;;;;;;1.81;53.09;99160.09;5044383;28;20049;-71
2022/04/08 01:46:23;;;;;;;6.00;0.35;;;;;;;1.61;53.29;99157.28;5044334;28;20061;-71
2022/04/08 01:48:53;;;;;;;8.07;0.32;;;;;;;1.30;52.92;99168.47;5052868;28;20051;-72
2022/04/08 01:51:19;;;;;;;8.70;0.50;;;;;;;1.60;52.60;99169.34;5024483;28;20087;-73
2022/04/08 01:53:44;;;;;;;4.13;0.28;;;;;;;1.72;52.35;99168.09;5025756;28;20115;-72
2022/04/08 01:56:10;;;;;;;7.05;0.50;;;;;;;2.08;51.20;99173.00;5032874;28;20604;-72
2022/04/08 01:58:35;;;;;;;13.73;0.43;;;;;;;1.92;51.87;99173.47;5045316;28;20036;-72
2022/04/08 02:01:01;;;;;;;7.10;0.30;;;;;;;1.96;51.88;99170.81;5046339;28;20409;-72
2022/04/08 02:03:27;;;;;;;5.80;0.32;;;;;;;1.79;52.63;99172.19;5055583;28;20684;-72
2022/04/08 02:05:53;;;;;;;2.80;0.60;;;;;;;1.90;52.19;99185.56;5045991;28;20033;-72
2022/04/08 02:08:19;;;;;;;3.65;0.43;;;;;;;1.80;52.33;99184.19;5049390;28;20078;-72
2022/04/08 02:10:44;;;;;;;8.88;0.40;;;;;;;1.99;52.05;99193.91;5046559;28;20050;-72
2022/04/08 02:13:10;;;;;;;4.85;0.45;;;;;;;1.97;52.17;99199.09;5049014;28;20032;-72
2022/04/08 02:15:37;;;;;;;6.22;0.65;;;;;;;1.87;52.83;99195.97;5048502;28;20044;-72
2022/04/08 02:18:03;;;;;;;16.10;0.75;;;;;;;1.96;52.75;99201.75;5048952;28;20033;-72
2022/04/08 02:20:32;;;;;;;6.68;0.85;;;;;;;1.84;53.22;99206.38;5049641;28;20041;-72
2022/04/08 02:22:58;;;;;;;4.72;0.17;;;;;;;2.17;52.36;99208.78;5047805;28;20051;-72
2022/04/08 02:25:25;;;;;;;2.97;0.52;;;;;;;2.12;52.77;99211.50;5047540;28;20052;-72
2022/04/08 02:27:51;;;;;;;12.73;1.42;;;;;;;1.73;53.71;99217.00;5050648;28;20032;-72
2022/04/08 02:30:17;;;;;;;6.97;0.25;;;;;;;2.14;52.90;99220.03;5045963;28;20028;-72
2022/04/08 02:32:42;;;;;;;13.23;0.40;;;;;;;2.15;53.29;99220.88;5048036;28;20663;-72
2022/04/08 02:35:08;;;;;;;13.35;0.68;;;;;;;2.15;53.23;99218.31;5046701;28;20596;-72
2022/04/08 02:37:34;;;;;;;6.15;0.35;;;;;;;1.66;53.56;99222.38;5036193;28;20151;-72
2022/04/08 02:39:59;;;;;;;9.07;0.20;;;;;;;2.29;51.83;99221.28;5046321;28;20556;-73
2022/04/08 02:42:24;;;;;;;11.85;0.40;;;;;;;2.13;51.53;99227.81;5046300;28;20061;-72
2022/04/08 02:44:50;;;;;;;7.55;0.45;;;;;;;2.33;49.92;99234.91;5047207;28;20525;-72
2022/04/08 02:47:15;;;;;;;5.70;0.52;;;;;;;2.39;49.55;99239.03;5048582;28;20730;-72
2022/04/08 02:49:41;;;;;;;6.80;0.85;;;;;;;2.46;48.87;99243.94;5046431;28;20029;-71
2022/04/08 02:52:07;;;;;;;4.90;0.25;;;;;;;2.63;48.80;99243.41;5050618;28;20132;-72
2022/04/08 02:54:32;;;;;;;6.40;0.50;;;;;;;2.47;48.36;99252.53;5049826;28;20116;-72
2022/04/08 02:56:58;;;;;;;5.18;0.20;;;;;;;2.42;48.18;99257.84;5048077;28;20067;-72
2022/04/08 02:59:23;;;;;;;10.77;0.63;;;;;;;2.42;48.08;99249.25;5048071;28;20105;-72
2022/04/08 03:01:49;;;;;;;8.70;1.23;;;;;;;2.64;48.01;99257.13;5045236;28;20051;-72
2022/04/08 03:04:14;;;;;;;6.28;0.57;;;;;;;2.51;48.51;99256.69;5047726;28;20095;-72
2022/04/08 03:06:40;;;;;;;9.93;1.00;;;;;;;2.58;47.85;99263.34;5044538;28;20099;-72
2022/04/08 03:09:05;;;;;;;6.85;0.52;;;;;;;2.73;47.51;99262.84;5045559;28;20032;-73
2022/04/08 03:11:32;;;;;;;6.25;0.85;;;;;;;2.53;47.83;99262.63;5062932;28;20632;-73
2022/04/08 03:14:00;;;;;;;7.45;0.30;;;;;;;2.65;47.23;99262.25;5048043;28;20085;-73
2022/04/08 03:16:26;;;;;;;6.07;0.40;;;;;;;2.56;47.51;99263.41;5054668;28;20041;-72
2022/04/08 03:18:51;;;;;;;10.88;0.65;;;;;;;2.76;47.59;99273.06;5044214;28;20033;-73
2022/04/08 03:21:17;;;;;;;14.98;0.73;;;;;;;2.85;47.10;99263.34;5048616;28;20163;-73
2022/04/08 03:23:43;;;;;;;10.95;0.43;;;;;;;2.11;48.50;99261.38;5046545;28;20032;-72
2022/04/08 03:26:09;;;;;;;8.32;0.40;;;;;;;2.92;47.21;99269.97;5046891;28;20044;-72
2022/04/08 03:28:34;;;;;;;7.93;0.65;;;;;;;2.87;47.22;99271.88;5045761;28;20024;-74
2022/04/08 03:31:01;;;;;;;3.85;0.52;;;;;;;2.27;48.47;99272.06;5030526;28;20342;-72
2022/04/08 03:33:27;;;;;;;14.05;0.80;;;;;;;2.52;48.32;99271.28;5046468;28;20446;-72
2022/04/08 03:35:53;;;;;;;11.88;0.77;;;;;;;2.54;48.19;99274.66;5042629;28;20041;-72
2022/04/08 03:38:18;;;;;;;6.95;0.85;;;;;;;2.93;47.51;99287.13;5047421;28;20037;-74
2022/04/08 03:40:43;;;;;;;5.50;0.32;;;;;;;2.98;47.67;99298.16;5045519;28;20646;-72
2022/04/08 03:43:09;;;;;;;10.00;1.33;;;;;;;3.03;47.28;99295.41;5051425;28;20057;-72
2022/04/08 03:45:35;;;;;;;9.32;1.63;;;;;;;2.91;47.20;99287.19;5045416;28;20071;-74
2022/04/08 03:48:01;;;;;;;8.63;1.42;;;;;;;2.83;47.69;99296.09;5047317;28;20159;-72
2022/04/08 03:50:27;;;;;;;10.80;0.52;;;;;;;2.85;47.14;99289.13;5046470;28;20556;-73
2022/04/08 03:52:52;;;;;;;12.35;0.70;;;;;;;2.89;46.42;99301.03;5047501;28;20502;-72
2022/04/08 03:55:18;;;;;;;10.30;0.68;;;;;;;2.69;46.30;99294.81;5045834;28;20071;-73
2022/04/08 03:57:43;;;;;;;7.95;1.33;;;;;;;2.52;46.72;99295.34;5046432;28;20109;-72
2022/04/08 04:00:09;;;;;;;13.85;0.30;;;;;;;3.03;45.94;99304.00;5048807;28;20029;-72
2022/04/08 04:02:35;;;;;;;7.80;0.40;;;;;;;2.81;46.84;99323.69;5050384;28;20087;-74
2022/04/08 04:05:02;;;;;;;5.60;0.13;;;;;;;2.41;48.03;99343.81;5048540;28;20088;-71
2022/04/08 04:07:28;;;;;;;8.90;1.30;;;;;;;1.76;50.35;99337.16;5051181;28;20036;-72
2022/04/08 04:09:54;;;;;;;3.53;0.10;;;;;;;1.38;51.44;99326.13;5048072;28;20074;-71
2022/04/08 04:12:19;;;;;;;2.70;0.20;;;;;;;1.82;50.70;99352.44;5049292;28;20052;-72
2022/04/08 04:14:45;;;;;;;6.30;0.30;;;;;;;1.55;51.18;99364.34;5051837;28;20273;-72
2022/04/08 04:17:10;;;;;;;3.80;0.40;;;;;;;1.56;51.25;99378.91;5048975;28;20048;-73
2022/04/08 04:19:36;;;;;;;1.85;0.13;;;;;;;1.36;51.81;99397.41;5050075;28;20191;-73
2022/04/08 04:22:02;;;;;;;3.58;0.30;;;;;;;1.48;51.83;99378.25;5045184;28;20063;-72
2022/04/08 04:24:28;;;;;;;6.15;0.32;;;;;;;1.30;52.57;99366.66;5054988;28;20037;-71
2022/04/08 04:26:53;;;;;;;4.10;0.10;;;;;;;1.43;52.67;99368.06;5049397;28;20041;-72
2022/04/08 04:29:19;;;;;;;4.10;0.13;;;;;;;1.51;52.33;99362.72;5051937;28;20024;-72
2022/04/08 04:31:44;;;;;;;3.85;0.90;;;;;;;1.43;53.11;99377.53;5045530;28;20056;-71
2022/04/08 04:34:10;;;;;;;1.30;0.10;;;;;;;1.67;53.04;99371.72;5048055;28;20070;-72
2022/04/08 04:36:36;;;;;;;0.85;0.40;;;;;;;1.70;52.85;99381.09;5043169;28;20045;-72
2022/04/08 04:39:01;;;;;;;2.10;0.43;;;;;;;1.84;52.83;99381.59;5047156;28;20032;-72
2022/04/08 04:41:27;;;;;;;4.43;0.10;;;;;;;1.94;52.90;99377.84;5046607;28;20198;-72
2022/04/08 04:43:52;;;;;;;4.40;0.63;;;;;;;1.66;53.75;99382.94;5045273;28;20032;-71
2022/04/08 04:46:18;;;;;;;2.35;0.20;;;;;;;1.89;53.47;99384.03;5048557;28;20041;-71
2022/04/08 04:48:44;;;;;;;4.50;0.30;;;;;;;1.57;54.77;99388.28;5043952;28;20498;-71
2022/04/08 04:51:11;;;;;;;5.43;0.50;;;;;;;1.50;55.43;99387.63;5045502;28;20082;-73
2022/04/08 04:53:37;;;;;;;1.90;0.57;;;;;;;1.29;55.84;99394.16;5041884;28;20440;-71
2022/04/08 04:56:02;;;;;;;5.57;0.65;;;;;;;1.37;55.26;99396.50;5044272;28;20083;-71
2022/04/08 04:58:28;;;;;;;2.20;0.28;;;;;;;1.10;56.23;99392.91;5043437;28;20063;-70
2022/04/08 05:00:53;;;;;;;8.82;0.20;;;;;;;1.10;56.31;99398.91;5041914;28;20075;-71
2022/04/08 05:03:19;;;;;;;4.20;0.10;;;;;;;1.24;55.49;99387.44;5044043;28;20056;-72
2022/04/08 05:05:44;;;;;;;3.00;0.43;;;;;;;1.42;55.06;99389.56;5042871;28;20036;-71
2022/04/08 05:08:10;;;;;;;6.45;0.50;;;;;;;1.48;54.43;99389.41;5045166;28;20040;-71
2022/04/08 05:10:35;;;;;;;0.93;0.30;;;;;;;1.55;54.45;99390.09;5044241;28;20044;-73
2022/04/08 05:13:01;;;;;;;5.22;0.40;;;;;;;1.14;55.51;99399.66;5042091;28;20047;-71
2022/04/08 05:15:27;;;;;;;6.22;0.30;;;;;;;0.98;55.64;99404.34;5043160;28;20037;-71
2022/04/08 05:17:53;;;;;;;2.80;0.22;;;;;;;0.60;56.77;99407.81;5045308;28;20766;-71
2022/04/08 05:20:19;;;;;;;4.72;0.20;;;;;;;1.09;55.61;99407.50;5043273;28;20039;-71
2022/04/08 05:22:45;;;;;;;2.50;0.10;;;;;;;1.29;54.58;99413.91;5043746;28;20041;-71
2022/04/08 05:25:10;;;;;;;0.68;0.20;;;;;;;1.05;55.36;99412.75;5043062;28;20053;-71
2022/04/08 05:27:41;;;;;;;4.38;0.10;;;;;;;0.98;55.43;99430.06;5043881;28;20043;-70
2022/04/08 05:30:18;;;;;;;6.30;0.10;;;;;;;1.31;54.66;99423.28;5054490;28;20066;-72
2022/04/08 05:32:46;;;;;;;3.78;0.55;;;;;;;1.09;55.34;99428.09;5043498;28;20408;-72
2022/04/08 05:35:18;;;;;;;1.70;0.40;;;;;;;1.07;55.42;99437.56;5048692;28;20024;-72
2022/04/08 05:37:48;;;;;;;3.25;0.28;;;;;;;1.52;54.26;99436.50;5047754;28;20049;-71
2022/04/08 05:40:20;;;;;;;2.85;0.20;;;;;;;2.19;53.49;99439.00;5048185;28;20074;-72
2022/04/08 05:42:46;;;;;;;;;;;;;;;2.97;50.37;99443.56;5047209;28;20094;-71
2022/04/08 05:45:14;;;;;;;4.07;0.52;;;;;;;4.09;47.80;99431.25;5049393;28;19916;-71
2022/04/08 05:47:40;;;;;;;1.58;0.10;;;;;;;4.60;46.49;99448.31;5047154;28;20102;-73
2022/04/08 05:50:06;;;;;;;3.15;0.57;;;;;;;5.25;44.80;99436.31;5049105;28;20470;-72
2022/04/08 05:52:32;;;;;;;1.70;0.20;;;;;;;5.25;43.75;99442.31;5049336;28;20066;-72
2022/04/08 05:54:58;;;;;;;8.18;0.20;;;;;;;3.91;46.85;99449.09;5046470;28;20040;-72
2022/04/08 05:57:23;;;;;;;11.18;0.75;;;;;;;4.22;46.41;99445.41;5048426;28;20140;-72
2022/04/08 05:59:50;;;;;;;1.00;0.10;;;;;;;4.74;46.12;99446.03;5048572;28;20119;-73
2022/04/08 06:02:17;;;;;;;12.40;0.30;;;;;;;6.37;42.82;99436.69;5048364;28;20032;-75
2022/04/08 06:04:42;;;;;;;7.13;0.40;;;;;;;7.29;41.78;99445.34;5048934;28;20089;-71
2022/04/08 06:07:08;;;;;;;6.10;0.20;;;;;;;8.42;39.13;99437.84;5050379;28;20045;-71
2022/04/08 06:09:34;;;;;;;3.58;0.20;;;;;;;8.06;39.19;99433.69;5049332;28;20028;-72
2022/04/08 06:11:59;;;;;;;3.35;0.20;;;;;;;8.83;37.46;99434.78;5046566;28;20571;-73
2022/04/08 06:14:26;;;;;;;3.72;0.40;;;;;;;8.30;37.37;99441.13;5048084;28;20450;-72
2022/04/08 06:16:52;;;;;;;2.65;0.20;;;;;;;8.08;38.69;99437.03;5043716;28;20048;-72
2022/04/08 06:19:18;;;;;;;5.85;0.35;;;;;;;7.59;39.74;99421.38;5049852;28;20561;-74
2022/04/08 06:21:43;;;;;;;4.32;0.10;;;;;;;7.67;40.16;99437.44;5046827;28;20135;-73
2022/04/08 06:24:09;;;;;;;1.20;0.17;;;;;;;9.93;35.56;99424.13;5048446;28;20102;-72
2022/04/08 06:26:36;;;;;;;2.75;1.38;;;;;;;7.99;38.29;99428.88;5047656;28;20106;-71
2022/04/08 06:29:04;;;;;;;4.78;0.43;;;;;;;8.30;38.48;99435.91;5048907;28;20024;-73
2022/04/08 06:31:31;;;;;;;4.75;0.10;;;;;;;8.95;37.36;99426.28;5048360;28;20169;-73
2022/04/08 06:34:00;;;;;;;4.38;0.20;;;;;;;6.93;40.21;99434.13;5048929;28;20037;-72
2022/04/08 06:36:27;;;;;;;4.95;0.75;;;;;;;5.24;43.58;99440.66;5049915;28;20207;-73
2022/04/08 06:38:53;;;;;;;3.97;0.30;;;;;;;7.22;41.35;99441.38;5046332;28;20025;-72
2022/04/08 06:41:18;;;;;;;12.07;0.40;;;;;;;8.60;38.35;99437.78;5048474;28;20697;-73
2022/04/08 06:43:44;;;;;;;4.70;0.40;;;;;;;9.09;37.74;99437.69;5047592;28;20135;-72
2022/04/08 06:46:09;;;;;;;5.05;0.32;;;;;;;6.83;41.45;99442.34;5048856;28;20208;-73
2022/04/08 06:48:34;;;;;;;9.80;0.88;;;;;;;4.92;46.46;99448.84;5048216;28;20375;-73
2022/04/08 06:51:04;;;;;;;5.78;0.43;;;;;;;5.17;47.91;99453.91;5044287;28;20070;-73
2022/04/08 06:53:32;;;;;;;6.22;0.40;;;;;;;5.86;45.50;99446.69;5049767;28;20072;-72
2022/04/08 06:55:59;;;;;;;6.05;0.52;;;;;;;4.40;48.88;99452.50;5048867;28;20535;-74
2022/04/08 06:58:26;;;;;;;9.18;0.50;;;;;;;5.46;47.04;99442.38;5049422;28;20037;-73
2022/04/08 07:00:52;;;;;;;12.70;0.77;;;;;;;5.46;46.72;99443.19;5047307;28;21001;-75
2022/04/08 07:03:18;;;;;;;3.13;0.47;;;;;;;5.61;47.06;99454.69;5045278;28;20628;-71
2022/04/08 07:05:44;;;;;;;5.03;1.27;;;;;;;8.02;42.81;99450.38;5046079;28;20053;-74
2022/04/08 07:08:09;;;;;;;3.85;1.40;;;;;;;8.64;40.04;99452.31;5053762;28;20091;-74
2022/04/08 07:10:35;;;;;;;7.00;0.65;;;;;;;9.73;37.59;99457.44;5044455;28;20049;-72
2022/04/08 07:13:01;;;;;;;4.93;0.60;;;;;;;9.66;37.39;99453.50;5046625;28;20144;-72
2022/04/08 07:15:26;;;;;;;2.85;0.45;;;;;;;7.80;40.56;99444.59;5054215;28;20044;-72
2022/04/08 07:17:51;;;;;;;5.07;0.40;;;;;;;5.97;45.10;99461.81;5046346;28;20032;-73
2022/04/08 07:20:18;;;;;;;3.88;0.55;;;;;;;5.11;47.01;99455.00;5044321;28;20101;-73
2022/04/08 07:22:43;;;;;;;6.38;0.90;;;;;;;4.50;48.69;99457.31;5046822;28;20094;-73
2022/04/08 07:25:10;;;;;;;3.05;0.20;;;;;;;4.07;49.65;99472.66;5048352;28;20033;-72
2022/04/08 07:27:46;;;;;;;5.15;0.43;;;;;;;3.55;51.81;99467.53;5045731;28;20079;-74
2022/04/08 07:30:13;;;;;;;2.55;0.50;;;;;;;3.51;52.07;99465.13;5053571;28;20040;-73
2022/04/08 07:32:39;;;;;;;7.13;0.77;;;;;;;3.99;51.46;99472.94;5044811;28;20037;-72
2022/04/08 07:35:05;;;;;;;3.13;0.30;;;;;;;4.66;49.93;99473.13;5045663;28;20043;-72
2022/04/08 07:37:32;;;;;;;5.43;0.30;;;;;;;4.20;50.60;99481.66;5046322;28;20037;-72
2022/04/08 07:39:58;;;;;;;8.63;0.47;;;;;;;5.86;46.20;99474.38;5045512;28;20033;-73
2022/04/08 07:42:25;;;;;;;9.48;0.63;;;;;;;7.90;41.43;99482.22;5046633;28;20059;-72
2022/04/08 07:44:51;;;;;;;8.05;0.43;;;;;;;8.90;38.47;99483.03;5052933;28;20374;-74
2022/04/08 07:47:18;;;;;;;3.00;0.63;;;;;;;10.85;34.31;99475.94;5045588;28;20060;-72
2022/04/08 07:49:44;;;;;;;5.35;0.55;;;;;;;10.56;34.51;99481.16;5044605;28;20032;-72
2022/04/08 07:52:10;;;;;;;4.07;0.20;;;;;;;12.27;29.16;99481.38;5047119;28;20142;-73
2022/04/08 07:54:35;;;;;;;3.53;0.60;;;;;;;12.73;28.42;99479.94;5045631;28;20576;-73
2022/04/08 07:57:01;;;;;;;4.72;0.30;;;;;;;10.73;29.53;99471.47;5046181;28;20036;-73
2022/04/08 07:59:26;;;;;;;5.15;0.20;;;;;;;10.01;30.88;99474.94;5046828;28;20583;-74
2022/04/08 08:01:52;;;;;;;6.55;0.82;;;;;;;9.95;32.30;99487.53;5042359;28;20671;-74
2022/04/08 08:04:17;;;;;;;2.22;0.43;;;;;;;9.89;32.39;99486.09;5048608;28;20064;-73
2022/04/08 08:06:43;;;;;;;7.93;0.20;;;;;;;8.82;34.23;99487.81;5043783;28;20198;-74
2022/04/08 08:09:08;;;;;;;3.55;0.40;;;;;;;6.57;40.62;99499.84;5048947;28;20655;-74
2022/04/08 08:11:34;;;;;;;6.55;0.47;;;;;;;5.83;42.87;99503.84;5044496;28;20321;-72
2022/04/08 08:13:59;;;;;;;2.65;0.30;;;;;;;5.75;44.13;99497.31;5047228;28;20033;-73
2022/04/08 08:16:25;;;;;;;9.63;0.77;;;;;;;6.99;42.53;99498.78;5044975;28;20481;-73
2022/04/08 08:18:52;;;;;;;1.75;0.25;;;;;;;7.38;41.49;99500.38;5044740;28;20036;-73
2022/04/08 08:21:18;;;;;;;7.40;0.30;;;;;;;7.26;42.93;99502.66;5049155;28;20219;-74
2022/04/08 08:23:43;;;;;;;6.30;0.25;;;;;;;9.69;37.80;99499.44;5045957;28;20645;-72
2022/04/08 08:26:08;;;;;;;5.93;0.45;;;;;;;12.90;31.44;99490.06;5048208;28;20037;-73
2022/04/08 08:28:34;;;;;;;2.00;0.20;;;;;;;13.76;28.94;99490.81;5045177;28;20078;-74
2022/04/08 08:30:59;;;;;;;2.17;0.20;;;;;;;13.97;29.48;99488.34;5044811;28;20048;-73
2022/04/08 08:33:25;;;;;;;2.33;0.10;;;;;;;13.41;29.75;99481.13;5045939;28;20156;-74
2022/04/08 08:35:50;;;;;;;3.10;0.45;;;;;;;12.85;30.05;99497.44;5045068;28;20054;-73
2022/04/08 08:38:16;;;;;;;3.35;0.38;;;;;;;11.34;32.76;99495.47;5044721;28;20071;-73
2022/04/08 08:40:43;;;;;;;1.55;0.30;;;;;;;10.97;33.73;99503.06;5045312;28;20658;-73
2022/04/08 08:43:15;;;;;;;2.00;0.30;;;;;;;9.91;36.81;99501.69;5046741;28;20033;-74
2022/04/08 08:45:43;;;;;;;;;;;;;;;8.64;37.88;99504.41;5043485;28;20047;-75
2022/04/08 08:48:08;;;;;;;2.63;0.35;;;;;;;8.56;38.90;99497.00;5043872;28;19950;-74
2022/04/08 08:50:37;;;;;;;2.58;0.20;;;;;;;8.59;37.97;99491.63;5044765;28;20040;-74
2022/04/08 08:53:03;;;;;;;1.65;0.20;;;;;;;10.56;34.97;99499.47;5045838;28;20033;-74
2022/04/08 08:55:28;;;;;;;5.90;0.40;;;;;;;11.43;34.51;99495.69;5041357;28;20078;-74
2022/04/08 08:57:54;;;;;;;1.73;0.38;;;;;;;10.91;34.45;99496.44;5045080;28;20039;-74
2022/04/08 09:00:22;;;;;;;6.47;0.50;;;;;;;12.01;33.22;99488.38;5045845;28;20025;-74
2022/04/08 09:02:49;;;;;;;2.08;0.82;;;;;;;10.28;34.04;99491.63;5047111;28;20186;-74
2022/04/08 09:05:16;;;;;;;8.23;0.75;;;;;;;8.76;36.14;99485.53;5046392;28;20077;-73
2022/04/08 09:07:42;;;;;;;4.53;0.63;;;;;;;7.79;40.06;99484.53;5045212;28;20045;-73
2022/04/08 09:10:08;;;;;;;2.45;0.60;;;;;;;7.96;39.83;99492.34;5048039;28;20037;-75
2022/04/08 09:12:33;;;;;;;6.30;0.63;;;;;;;8.51;37.74;99491.19;5044969;28;20044;-75
2022/04/08 09:15:01;;;;;;;5.55;0.25;;;;;;;6.56;40.77;99501.59;5042861;28;20197;-73
2022/04/08 09:17:28;;;;;;;7.15;0.50;;;;;;;6.91;41.84;99502.59;5046387;28;20045;-73
2022/04/08 09:19:58;;;;;;;7.65;0.60;;;;;;;8.15;40.06;99490.44;5044681;28;20067;-72
2022/04/08 09:22:29;;;;;;;5.53;0.32;;;;;;;10.04;36.20;99494.81;5012274;28;20041;-73
2022/04/08 09:24:54;;;;;;;0.80;0.15;;;;;;;10.43;36.00;99483.69;5026050;28;20050;-72
2022/04/08 09:27:31;;;;;;;3.92;0.30;;;;;;;11.02;34.51;99487.94;5039670;28;20037;-73
2022/04/08 09:29:56;;;;;;;1.83;0.20;;;;;;;10.62;33.20;99475.56;5046959;28;20032;-74
2022/04/08 09:32:26;;;;;;;3.28;0.75;;;;;;;8.94;33.97;99487.16;5051422;28;20055;-72
2022/04/08 09:34:51;;;;;;;5.85;0.45;;;;;;;7.29;38.11;99497.34;5037451;28;20041;-72
2022/04/08 09:37:17;;;;;;;2.88;0.35;;;;;;;5.92;40.51;99507.81;5053263;28;20241;-73
2022/04/08 09:39:59;;;;;;;4.20;0.10;;;;;;;5.59;41.43;99508.34;5047855;28;20033;-72
2022/04/08 09:42:42;;;;;;;6.72;0.47;;;;;;;5.83;41.40;99513.41;5047017;28;20047;-73
2022/04/08 09:45:09;;;;;;;7.05;0.90;;;;;;;7.09;39.75;99500.03;5048831;28;20025;-73
2022/04/08 09:47:35;;;;;;;2.15;0.30;;;;;;;8.40;38.23;99496.97;5046622;28;20073;-73
2022/04/08 09:50:00;;;;;;;1.63;0.20;;;;;;;9.28;36.51;99500.91;5048228;28;21034;-74
2022/04/08 09:52:26;;;;;;;2.20;0.20;;;;;;;10.51;35.91;99488.47;5045956;28;20408;-74
2022/04/08 09:54:53;;;;;;;1.58;0.10;;;;;;;10.29;33.50;99488.94;5045584;28;20040;-74
2022/04/08 09:57:19;;;;;;;3.17;0.47;;;;;;;10.64;32.39;99478.94;5048124;28;20455;-74
2022/04/08 09:59:54;;;;;;;6.43;0.28;;;;;;;9.82;33.64;99489.19;5046772;28;20040;-73
2022/04/08 10:02:24;;;;;;;2.60;0.20;;;;;;;10.79;32.45;99484.97;5048595;28;20091;-74
2022/04/08 10:04:50;;;;;;;6.13;0.28;;;;;;;11.21;29.93;99466.66;5046586;28;20032;-74
2022/04/08 10:07:16;;;;;;;3.35;0.10;;;;;;;10.32;30.11;99480.06;5044326;28;20866;-73
2022/04/08 10:09:53;;;;;;;3.13;0.00;;;;;;;9.57;29.76;99485.34;5046526;28;20068;-74
2022/04/08 10:12:35;;;;;;;2.08;0.65;;;;;;;9.63;30.80;99479.75;5050121;28;20114;-74
2022/04/08 10:15:06;;;;;;;;;;;;;;;9.86;29.74;99475.03;5042803;28;20139;-74
2022/04/08 10:17:32;;;;;;;2.83;0.20;;;;;;;10.41;28.88;99469.06;5049995;28;19927;-74
2022/04/08 10:20:25;;;;;;;4.95;0.20;;;;;;;9.80;30.70;99482.25;5042727;28;20653;-73
2022/04/08 10:22:52;;;;;;;1.80;0.20;;;;;;;10.69;30.12;99467.34;5047996;28;20053;-75
2022/04/08 10:25:18;;;;;;;1.38;0.20;;;;;;;10.66;29.27;99471.00;5046580;28;20107;-74
2022/04/08 10:27:45;;;;;;;1.65;0.30;;;;;;;8.29;32.99;99473.25;5050176;28;20093;-73
2022/04/08 10:30:23;;;;;;;1.77;0.10;;;;;;;8.59;33.15;99475.19;5050206;28;20559;-74
2022/04/08 10:33:07;;;;;;;1.65;0.10;;;;;;;8.30;32.99;99480.16;5046818;28;20080;-74
2022/04/08 10:35:33;;;;;;;0.50;0.10;;;;;;;8.74;31.63;99475.22;5047034;28;20572;-74
2022/04/08 10:38:04;;;;;;;2.38;0.32;;;;;;;9.00;31.31;99478.13;5048143;28;20037;-74
2022/04/08 10:40:37;;;;;;;0.37;0.00;;;;;;;9.65;31.77;99479.69;5049274;28;20147;-73
2022/04/08 10:43:08;;;;;;;1.13;0.30;;;;;;;8.69;31.64;99479.78;5050738;28;20048;-73
2022/04/08 10:45:34;;;;;;;1.38;0.00;;;;;;;9.79;30.50;99480.59;5046597;28;20095;-72
2022/04/08 10:48:10;;;;;;;1.45;0.32;;;;;;;10.06;30.01;99471.19;5063015;28;20033;-73
2022/04/08 10:50:37;;;;;;;0.77;0.05;;;;;;;11.31;29.26;99475.59;5047658;28;20516;-73
2022/04/08 10:53:07;;;;;;;4.93;0.10;;;;;;;10.74;28.66;99470.50;5049626;28;20033;-73
2022/04/08 10:55:47;;;;;;;3.17;0.13;;;;;;;9.56;31.15;99468.84;5046585;28;20033;-74
2022/04/08 10:58:15;;;;;;;2.50;0.00;;;;;;;10.22;30.49;99475.41;5049622;28;20033;-73
2022/04/08 11:00:41;;;;;;;2.42;0.30;;;;;;;10.38;30.66;99472.69;5045664;28;20036;-73
2022/04/08 11:03:10;;;;;;;2.17;0.38;;;;;;;11.15;30.17;99467.03;5047629;28;20140;-73
2022/04/08 11:05:38;;;;;;;2.45;0.20;;;;;;;10.12;31.43;99471.66;5043088;28;20075;-73
2022/04/08 11:08:04;;;;;;;3.17;0.10;;;;;;;10.17;30.53;99466.19;5052632;28;20039;-73
2022/04/08 11:10:31;;;;;;;3.08;0.20;;;;;;;9.31;30.95;99468.59;5049947;28;20036;-72
2022/04/08 11:12:57;;;;;;;4.20;0.13;;;;;;;10.40;29.51;99464.78;5048719;28;20039;-74
2022/04/08 11:15:24;;;;;;;1.52;0.10;;;;;;;10.43;31.50;99462.78;5045256;28;20041;-73
2022/04/08 11:17:52;;;;;;;0.77;0.00;;;;;;;9.85;32.08;99458.50;5046447;28;20629;-72
2022/04/08 11:20:20;;;;;;;2.30;0.17;;;;;;;10.46;31.83;99466.16;5045754;28;20584;-75
2022/04/08 11:22:49;;;;;;;4.20;0.10;;;;;;;10.78;30.59;99466.78;5045552;28;20032;-73
2022/04/08 11:25:21;;;;;;;1.73;0.03;;;;;;;11.43;29.65;99456.47;5047516;28;20045;-73
2022/04/08 11:28:07;;;;;;;1.20;0.10;;;;;;;10.42;29.26;99463.75;5045828;28;20040;-73
2022/04/08 11:30:38;;;;;;;0.60;0.25;;;;;;;11.00;27.84;99451.41;5047024;28;20043;-74
2022/04/08 11:33:18;;;;;;;1.80;0.10;;;;;;;10.48;28.94;99462.53;5047625;28;20740;-73
2022/04/08 11:35:44;;;;;;;2.63;0.25;;;;;;;9.24;30.50;99459.44;5052738;28;20484;-73
2022/04/08 11:38:18;;;;;;;7.45;0.25;;;;;;;9.75;30.45;99458.19;5049197;28;20033;-73
2022/04/08 11:40:44;;;;;;;6.35;0.50;;;;;;;8.88;32.46;99460.59;5062917;28;20045;-73